Time;durP1;ratioP1;P1;durP2;ratioP2;P2;SDS_P1;SDS_P2;PMS_P1;PMS_P2;Temp;Humidity;BMP_temperature;BMP_pressure;BME280_temperature;BME280_humidity;BME280_pressure;Samples;Min_cycle;Max_cycle;Signal;HPM_P1;HPM_P2
2022/08/29 00:02:04;;;;;;;8.40;3.20;;;15.20;99.90;;;;;;5031143;28;20037;-29
2022/08/29 00:04:30;;;;;;;6.80;3.22;;;15.20;99.90;;;;;;5033464;28;20395;-28
2022/08/29 00:06:56;;;;;;;11.18;2.95;;;15.20;99.90;;;;;;5032806;28;20051;-28
2022/08/29 00:09:28;;;;;;;9.85;3.22;;;15.20;99.90;;;;;;5033250;28;20113;-29
2022/08/29 00:11:54;;;;;;;13.10;3.55;;;15.20;99.90;;;;;;5032580;28;20055;-28
2022/08/29 00:14:21;;;;;;;10.32;3.38;;;15.10;99.90;;;;;;5033637;28;20045;-28
2022/08/29 00:16:47;;;;;;;6.97;3.22;;;15.20;99.90;;;;;;5032914;28;20045;-28
2022/08/29 00:19:15;;;;;;;9.20;3.28;;;15.20;99.90;;;;;;5033615;28;20042;-28
2022/08/29 00:21:41;;;;;;;11.32;3.35;;;15.20;99.90;;;;;;5030797;28;20045;-28
2022/08/29 00:24:17;;;;;;;9.30;3.47;;;15.10;99.90;;;;;;5031017;28;20128;-28
2022/08/29 00:26:45;;;;;;;11.00;3.20;;;15.10;99.90;;;;;;5046972;28;20045;-28
2022/08/29 00:29:11;;;;;;;6.68;2.92;;;15.10;99.90;;;;;;5032008;28;20046;-28
2022/08/29 00:31:37;;;;;;;6.55;3.03;;;15.10;99.90;;;;;;5029851;28;20034;-29
2022/08/29 00:34:03;;;;;;;7.22;3.05;;;15.20;99.90;;;;;;5032721;28;20057;-28
2022/08/29 00:36:38;;;;;;;9.57;3.33;;;15.20;99.90;;;;;;5034219;28;20499;-28
2022/08/29 00:39:05;;;;;;;7.00;3.00;;;15.10;99.90;;;;;;5032016;28;20487;-28
2022/08/29 00:41:30;;;;;;;5.93;2.75;;;15.10;99.90;;;;;;5031060;28;20048;-28
2022/08/29 00:43:56;;;;;;;7.47;3.15;;;15.30;1.00;;;;;;5032197;28;20033;-28
2022/08/29 00:46:42;;;;;;;8.13;2.63;;;15.20;1.00;;;;;;5033089;28;20060;-29
2022/08/29 00:49:35;;;;;;;7.03;2.17;;;15.20;1.00;;;;;;5032279;28;20560;-28
2022/08/29 00:52:31;;;;;;;7.28;2.45;;;15.40;1.00;;;;;;5032698;28;20085;-28
2022/08/29 00:54:59;;;;;;;6.63;2.17;;;15.40;23.10;;;;;;5035026;28;20041;-28
2022/08/29 00:57:29;;;;;;;11.40;2.45;;;15.50;1.00;;;;;;5035768;28;20041;-29
2022/08/29 00:59:54;;;;;;;8.25;2.15;;;15.60;40.30;;;;;;5036383;28;20037;-28
2022/08/29 01:02:20;;;;;;;6.90;2.00;;;15.50;99.90;;;;;;5033796;28;20056;-27
2022/08/29 01:04:46;;;;;;;8.73;1.83;;;15.70;99.90;;;;;;5037631;28;20337;-27
2022/08/29 01:07:12;;;;;;;5.95;2.35;;;15.60;99.90;;;;;;5036520;28;20124;-28
2022/08/29 01:09:43;;;;;;;6.38;1.92;;;15.70;99.90;;;;;;5036252;28;20045;-27
2022/08/29 01:12:15;;;;;;;7.85;1.90;;;15.70;99.90;;;;;;5037517;28;20407;-27
2022/08/29 01:14:47;;;;;;;7.20;2.37;;;15.70;99.90;;;;;;5050003;28;20033;-27
2022/08/29 01:17:26;;;;;;;8.30;2.20;;;15.60;99.90;;;;;;5036315;28;20479;-28
2022/08/29 01:19:59;;;;;;;15.65;2.67;;;15.60;99.90;;;;;;5017590;28;20068;-27
2022/08/29 01:22:39;;;;;;;6.47;1.92;;;15.80;99.90;;;;;;5023903;28;20057;-27
2022/08/29 01:25:11;;;;;;;5.63;1.80;;;15.80;99.90;;;;;;5035022;28;20151;-27
2022/08/29 01:27:42;;;;;;;9.50;2.45;;;15.60;99.90;;;;;;5035654;28;20479;-28
2022/08/29 01:30:09;;;;;;;7.90;1.67;;;15.60;99.90;;;;;;5036435;28;20050;-27
2022/08/29 01:32:35;;;;;;;11.35;2.05;;;15.70;99.90;;;;;;5034617;28;20055;-28
2022/08/29 01:35:08;;;;;;;5.55;2.17;;;15.70;99.90;;;;;;5034076;28;20410;-27
2022/08/29 01:37:38;;;;;;;7.85;1.90;;;15.50;99.90;;;;;;5036489;28;20495;-27
2022/08/29 01:40:05;;;;;;;7.50;1.60;;;15.60;1.00;;;;;;5035626;28;20075;-28
2022/08/29 01:42:31;;;;;;;6.97;1.70;;;15.50;1.00;;;;;;5035131;28;20077;-27
2022/08/29 01:44:58;;;;;;;9.88;2.45;;;15.60;1.00;;;;;;5035131;28;20068;-28
2022/08/29 01:47:28;;;;;;;6.95;1.58;;;15.60;1.00;;;;;;5052414;28;20053;-27
2022/08/29 01:49:56;;;;;;;11.48;2.20;;;15.70;1.00;;;;;;5034507;28;20103;-27
2022/08/29 01:52:22;;;;;;;8.18;2.10;;;15.60;1.00;;;;;;5006676;28;20046;-28
2022/08/29 01:54:48;;;;;;;8.38;2.33;;;15.50;1.00;;;;;;5032178;28;20046;-27
2022/08/29 01:57:15;;;;;;;10.50;2.65;;;15.50;1.00;;;;;;5033074;28;20045;-27
2022/08/29 01:59:42;;;;;;;8.73;1.98;;;15.50;1.00;;;;;;5035321;28;20045;-27
2022/08/29 02:02:16;;;;;;;8.75;2.47;;;15.50;7.80;;;;;;5034090;28;20045;-27
2022/08/29 02:04:44;;;;;;;11.02;2.05;;;15.50;27.70;;;;;;5034120;28;20396;-28
2022/08/29 02:07:10;;;;;;;17.60;3.03;;;15.40;93.70;;;;;;5032422;28;20052;-28
2022/08/29 02:09:36;;;;;;;7.80;2.10;;;15.50;99.90;;;;;;5036421;28;20037;-27
2022/08/29 02:12:05;;;;;;;8.40;1.95;;;15.60;99.90;;;;;;5035400;28;20045;-27
2022/08/29 02:14:35;;;;;;;7.25;1.98;;;15.50;99.90;;;;;;5035225;28;20049;-27
2022/08/29 02:17:03;;;;;;;21.58;2.72;;;15.50;99.90;;;;;;5032696;28;20049;-28
2022/08/29 02:19:30;;;;;;;9.30;1.98;;;15.50;99.90;;;;;;5050055;28;20056;-27
2022/08/29 02:21:56;;;;;;;9.07;1.98;;;15.60;99.90;;;;;;5035208;28;20045;-27
2022/08/29 02:24:22;;;;;;;8.52;2.10;;;15.70;99.90;;;;;;5035785;28;20468;-27
2022/08/29 02:26:50;;;;;;;6.43;2.13;;;15.60;99.90;;;;;;5033857;28;20124;-27
2022/08/29 02:29:16;;;;;;;10.13;2.33;;;15.70;99.90;;;;;;5034460;28;20099;-27
2022/08/29 02:31:42;;;;;;;11.20;2.42;;;15.70;99.90;;;;;;5034702;28;20503;-27
2022/08/29 02:34:11;;;;;;;14.73;2.75;;;15.60;99.90;;;;;;5025391;28;20057;-27
2022/08/29 02:36:37;;;;;;;6.35;2.30;;;15.50;99.90;;;;;;5026137;28;20045;-28
2022/08/29 02:39:03;;;;;;;12.15;2.80;;;15.50;99.90;;;;;;5034136;28;20381;-27
2022/08/29 02:41:30;;;;;;;15.23;2.83;;;15.50;99.90;;;;;;5034230;28;20104;-27
2022/08/29 02:43:57;;;;;;;8.63;2.00;;;15.60;99.90;;;;;;5035165;28;20487;-27
2022/08/29 02:46:23;;;;;;;9.48;2.20;;;15.50;99.90;;;;;;5050166;28;20050;-27
2022/08/29 02:48:49;;;;;;;11.40;2.30;;;15.40;76.60;;;;;;5030555;28;20563;-27
2022/08/29 02:51:24;;;;;;;7.55;2.15;;;15.40;64.60;;;;;;5034358;28;20132;-27
2022/08/29 02:53:50;;;;;;;14.05;2.75;;;15.40;65.00;;;;;;5032551;28;20509;-27
2022/08/29 02:56:19;;;;;;;11.50;3.58;;;15.40;72.10;;;;;;5032753;28;20044;-27
2022/08/29 02:58:48;;;;;;;9.75;2.38;;;15.40;99.90;;;;;;5032809;28;20392;-27
2022/08/29 03:01:17;;;;;;;8.43;1.90;;;15.50;99.90;;;;;;5034172;28;20080;-27
2022/08/29 03:03:43;;;;;;;10.23;2.38;;;15.60;67.30;;;;;;5033450;28;20045;-27
2022/08/29 03:06:08;;;;;;;10.05;2.80;;;15.60;52.40;;;;;;5033782;28;20056;-27
2022/08/29 03:08:34;;;;;;;7.93;2.30;;;15.50;10.90;;;;;;5032861;28;20060;-27
2022/08/29 03:11:00;;;;;;;6.90;2.08;;;15.70;1.00;;;;;;5033440;28;20111;-27
2022/08/29 03:13:26;;;;;;;5.63;2.15;;;15.70;1.00;;;;;;5032774;28;20407;-27
2022/08/29 03:15:52;;;;;;;12.50;3.08;;;15.70;1.00;;;;;;5049549;28;20036;-27
2022/08/29 03:18:18;;;;;;;9.55;2.40;;;15.60;1.00;;;;;;5017445;28;20049;-27
2022/08/29 03:20:44;;;;;;;13.82;3.45;;;15.80;1.00;;;;;;5034534;28;20431;-27
2022/08/29 03:23:13;;;;;;;8.40;2.42;;;15.70;1.00;;;;;;5033525;28;20115;-27
2022/08/29 03:25:39;;;;;;;5.75;1.95;;;15.80;1.00;;;;;;5034356;28;20049;-27
2022/08/29 03:28:04;;;;;;;9.18;1.90;;;15.60;1.00;;;;;;5033462;28;20045;-28
2022/08/29 03:30:30;;;;;;;8.63;1.58;;;15.80;1.00;;;;;;5032176;28;20037;-27
2022/08/29 03:32:56;;;;;;;10.65;2.03;;;15.70;1.00;;;;;;5049425;28;20091;-28
2022/08/29 03:35:23;;;;;;;7.65;2.20;;;15.60;1.00;;;;;;5032744;28;20120;-27
2022/08/29 03:37:55;;;;;;;13.23;2.08;;;15.80;1.00;;;;;;5033203;28;20205;-27
2022/08/29 03:40:25;;;;;;;7.43;2.03;;;15.70;1.00;;;;;;5033464;28;20128;-27
2022/08/29 03:42:52;;;;;;;5.85;1.65;;;15.80;1.00;;;;;;5032962;28;20120;-27
2022/08/29 03:45:22;;;;;;;9.30;1.73;;;15.80;1.00;;;;;;5033023;28;20403;-27
2022/08/29 03:47:50;;;;;;;9.68;2.30;;;15.70;1.00;;;;;;5032999;28;20491;-28
2022/08/29 03:50:20;;;;;;;8.55;2.13;;;15.80;1.00;;;;;;5032478;28;20045;-28
2022/08/29 03:52:47;;;;;;;10.40;2.33;;;15.70;1.00;;;;;;5025592;28;20077;-29
2022/08/29 03:55:14;;;;;;;8.40;2.63;;;15.60;1.00;;;;;;5032104;28;20442;-28
2022/08/29 03:57:40;;;;;;;13.68;2.28;;;15.60;1.00;;;;;;5047860;28;20128;-27
2022/08/29 04:00:13;;;;;;;9.77;2.85;;;15.60;1.00;;;;;;5032133;28;20077;-27
2022/08/29 04:02:39;;;;;;;7.75;1.58;;;15.80;1.00;;;;;;5032811;28;20130;-27
2022/08/29 04:05:05;;;;;;;9.43;2.55;;;15.60;1.00;;;;;;5033070;28;20052;-28
2022/08/29 04:07:40;;;;;;;7.72;2.00;;;15.60;1.00;;;;;;5032267;28;20052;-27
2022/08/29 04:10:12;;;;;;;7.80;1.90;;;15.60;1.00;;;;;;5032229;28;20043;-28
2022/08/29 04:12:38;;;;;;;8.95;2.38;;;15.70;1.00;;;;;;5032954;28;20049;-27
2022/08/29 04:15:13;;;;;;;11.52;2.58;;;15.50;14.70;;;;;;5033614;28;20542;-27
2022/08/29 04:17:39;;;;;;;6.57;1.92;;;15.40;39.00;;;;;;5033565;28;20354;-27
2022/08/29 04:20:12;;;;;;;14.98;2.47;;;15.30;53.30;;;;;;5048259;28;20045;-28
2022/08/29 04:22:40;;;;;;;12.40;2.33;;;15.30;99.90;;;;;;5033422;28;20163;-27
2022/08/29 04:25:12;;;;;;;8.95;2.47;;;15.10;99.90;;;;;;5032406;28;20051;-27
2022/08/29 04:27:38;;;;;;;8.90;1.98;;;15.20;99.90;;;;;;5035838;28;20049;-28
2022/08/29 04:30:12;;;;;;;7.22;2.72;;;15.20;99.90;;;;;;5035775;28;20055;-27
2022/08/29 04:32:42;;;;;;;5.93;1.90;;;15.20;99.90;;;;;;5036991;28;20081;-28
2022/08/29 04:35:11;;;;;;;9.93;2.58;;;15.10;99.90;;;;;;5036474;28;20099;-27
2022/08/29 04:37:40;;;;;;;10.90;2.40;;;15.10;99.90;;;;;;5036832;28;20120;-27
2022/08/29 04:40:11;;;;;;;8.07;2.38;;;15.10;99.90;;;;;;5036856;28;20068;-27
2022/08/29 04:42:37;;;;;;;12.15;3.30;;;15.20;99.90;;;;;;5036115;28;20124;-27
2022/08/29 04:45:05;;;;;;;10.23;2.75;;;15.20;99.90;;;;;;5018628;28;20487;-27
2022/08/29 04:47:33;;;;;;;10.40;2.65;;;15.30;99.90;;;;;;5038186;28;20099;-28
2022/08/29 04:49:58;;;;;;;10.20;2.88;;;15.30;99.90;;;;;;5035005;28;20049;-27
2022/08/29 04:52:26;;;;;;;7.80;3.00;;;15.20;1.00;;;;;;5036358;28;20048;-28
2022/08/29 04:54:52;;;;;;;8.02;2.65;;;15.10;1.00;;;;;;5050586;28;20049;-27
2022/08/29 04:57:18;;;;;;;8.57;2.80;;;15.30;1.00;;;;;;5033587;28;20534;-27
2022/08/29 04:59:44;;;;;;;8.55;2.53;;;15.10;1.00;;;;;;5037469;28;20045;-27
2022/08/29 05:02:10;;;;;;;7.22;2.45;;;15.20;1.00;;;;;;5052543;28;20064;-27
2022/08/29 05:04:36;;;;;;;8.20;3.08;;;15.10;1.00;;;;;;5037073;28;20045;-27
2022/08/29 05:07:02;;;;;;;8.40;2.95;;;15.10;1.00;;;;;;5031513;28;20052;-27
2022/08/29 05:09:28;;;;;;;10.95;2.65;;;15.30;1.00;;;;;;5036988;28;20045;-27
2022/08/29 05:11:53;;;;;;;15.80;3.80;;;15.20;1.00;;;;;;5035614;28;20041;-27
2022/08/29 05:14:19;;;;;;;14.02;3.15;;;15.20;1.00;;;;;;5035970;28;20049;-27
2022/08/29 05:16:45;;;;;;;13.43;3.53;;;15.40;1.00;;;;;;5035047;28;20041;-27
2022/08/29 05:19:11;;;;;;;12.52;2.67;;;15.50;1.00;;;;;;5037391;28;20045;-27
2022/08/29 05:21:38;;;;;;;11.18;2.78;;;15.50;1.00;;;;;;5035102;28;20053;-27
2022/08/29 05:24:06;;;;;;;13.50;3.15;;;15.50;1.00;;;;;;5036062;28;20041;-27
2022/08/29 05:26:35;;;;;;;10.35;2.00;;;15.60;1.00;;;;;;5035916;28;20069;-27
2022/08/29 05:29:03;;;;;;;9.07;2.55;;;15.70;1.00;;;;;;5035617;28;20081;-27
2022/08/29 05:31:29;;;;;;;11.90;2.50;;;15.90;1.00;;;;;;5036571;28;20049;-27
2022/08/29 05:33:55;;;;;;;8.70;2.85;;;15.80;1.00;;;;;;5035413;28;20064;-27
2022/08/29 05:36:21;;;;;;;5.72;2.28;;;15.80;1.00;;;;;;5035982;28;20395;-27
2022/08/29 05:38:46;;;;;;;13.23;2.45;;;15.90;1.00;;;;;;5034581;28;20060;-27
2022/08/29 05:41:12;;;;;;;7.93;2.67;;;16.00;1.00;;;;;;5034485;28;20080;-27
2022/08/29 05:43:38;;;;;;;6.60;1.77;;;16.00;99.90;;;;;;5034197;28;20132;-27
2022/08/29 05:46:06;;;;;;;7.85;1.95;;;16.00;99.90;;;;;;5035434;28;20073;-28
2022/08/29 05:48:33;;;;;;;7.60;1.70;;;16.00;99.90;;;;;;5031380;28;20413;-27
2022/08/29 05:50:59;;;;;;;5.38;1.60;;;16.20;99.90;;;;;;5036237;28;20054;-27
2022/08/29 05:53:26;;;;;;;5.32;1.70;;;16.20;99.90;;;;;;5035312;28;20054;-27
2022/08/29 05:55:57;;;;;;;6.60;1.48;;;16.20;99.90;;;;;;5035046;28;20036;-27
2022/08/29 05:58:22;;;;;;;5.63;1.85;;;16.40;99.90;;;;;;5049627;28;20049;-27
2022/08/29 06:00:48;;;;;;;4.72;1.50;;;16.30;99.90;;;;;;5032382;28;20041;-27
2022/08/29 06:03:14;;;;;;;5.07;1.45;;;16.50;99.90;;;;;;5034849;28;20057;-27
2022/08/29 06:05:41;;;;;;;7.90;2.17;;;16.50;99.90;;;;;;5028914;28;20037;-27
2022/08/29 06:08:08;;;;;;;6.18;1.88;;;16.60;99.90;;;;;;5015162;28;20048;-28
2022/08/29 06:10:39;;;;;;;5.18;1.98;;;16.80;99.90;;;;;;5026367;28;20483;-27
2022/08/29 06:13:05;;;;;;;5.05;2.15;;;16.70;99.90;;;;;;5035866;28;20045;-27
2022/08/29 06:15:30;;;;;;;16.35;2.55;;;16.80;99.90;;;;;;5034933;28;20049;-27
2022/08/29 06:17:58;;;;;;;8.50;1.80;;;17.00;99.90;;;;;;5033420;28;20044;-28
2022/08/29 06:20:24;;;;;;;11.75;2.67;;;17.10;99.90;;;;;;5031861;28;20073;-27
2022/08/29 06:22:50;;;;;;;11.27;4.15;;;17.00;99.90;;;;;;5035134;28;20088;-27
2022/08/29 06:25:15;;;;;;;21.60;2.85;;;17.20;99.90;;;;;;5034510;28;20033;-28
2022/08/29 06:27:41;;;;;;;10.20;2.97;;;17.10;99.90;;;;;;5035421;28;20395;-27
2022/08/29 06:30:10;;;;;;;10.75;2.72;;;17.30;99.90;;;;;;5035071;28;20072;-29
2022/08/29 06:32:35;;;;;;;12.43;3.72;;;17.30;99.90;;;;;;5020833;28;20046;-29
2022/08/29 06:35:01;;;;;;;13.30;2.88;;;17.40;99.90;;;;;;5032534;28;20056;-28
2022/08/29 06:37:27;;;;;;;10.38;3.13;;;17.40;99.90;;;;;;5039841;28;20478;-28
2022/08/29 06:39:52;;;;;;;9.52;2.78;;;17.70;99.90;;;;;;5041026;28;20042;-27
2022/08/29 06:42:22;;;;;;;11.27;3.03;;;17.70;99.90;;;;;;5044489;28;20048;-28
2022/08/29 06:44:48;;;;;;;11.13;3.30;;;17.80;56.10;;;;;;5036345;28;20045;-28
2022/08/29 06:47:14;;;;;;;11.23;2.75;;;17.90;1.00;;;;;;5035210;28;20045;-27
2022/08/29 06:49:40;;;;;;;9.18;2.92;;;18.10;1.00;;;;;;5034193;28;20091;-28
2022/08/29 06:52:08;;;;;;;11.25;2.97;;;18.20;1.00;;;;;;5035823;28;20368;-27
2022/08/29 06:54:34;;;;;;;14.43;3.30;;;18.00;1.00;;;;;;5034237;28;20045;-27
2022/08/29 06:57:05;;;;;;;11.20;3.03;;;17.90;1.00;;;;;;5035510;28;20049;-27
2022/08/29 06:59:31;;;;;;;13.65;3.75;;;17.80;1.00;;;;;;5034622;28;20045;-27
2022/08/29 07:01:57;;;;;;;16.77;3.60;;;17.90;1.00;;;;;;5033887;28;20048;-27
2022/08/29 07:04:27;;;;;;;13.13;2.97;;;17.90;1.00;;;;;;5034835;28;20399;-27
2022/08/29 07:06:53;;;;;;;12.43;2.70;;;18.00;1.00;;;;;;5034552;28;20049;-28
2022/08/29 07:09:19;;;;;;;17.10;4.00;;;18.00;1.00;;;;;;5033806;28;20538;-28
2022/08/29 07:11:45;;;;;;;9.45;2.60;;;18.10;1.00;;;;;;5034067;28;20372;-27
2022/08/29 07:14:12;;;;;;;10.10;2.47;;;18.10;1.00;;;;;;5034627;28;20530;-27
2022/08/29 07:16:38;;;;;;;7.72;2.78;;;18.20;1.00;;;;;;5033646;28;20045;-27
2022/08/29 07:19:06;;;;;;;12.80;2.97;;;18.20;1.00;;;;;;5034558;28;20053;-27
2022/08/29 07:21:35;;;;;;;14.82;2.90;;;18.30;1.00;;;;;;5015441;28;20060;-27
2022/08/29 07:24:03;;;;;;;12.23;2.90;;;18.30;1.00;;;;;;5034482;28;20053;-28
2022/08/29 07:26:37;;;;;;;14.23;3.00;;;18.60;1.00;;;;;;5034495;28;20046;-27
2022/08/29 07:29:09;;;;;;;13.27;2.85;;;18.50;99.90;;;;;;5033264;28;20046;-28
2022/08/29 07:31:37;;;;;;;10.50;2.38;;;18.60;99.90;;;;;;5033603;28;20047;-27
2022/08/29 07:34:03;;;;;;;11.85;3.33;;;18.60;99.90;;;;;;5032322;28;20080;-28
2022/08/29 07:36:33;;;;;;;12.07;3.03;;;18.80;99.90;;;;;;5034178;28;20045;-27
2022/08/29 07:39:05;;;;;;;9.35;2.60;;;18.80;99.90;;;;;;5032949;28;20049;-27
2022/08/29 07:41:31;;;;;;;9.50;2.60;;;18.80;99.90;;;;;;5033227;28;20056;-27
2022/08/29 07:43:57;;;;;;;10.38;2.80;;;19.00;59.40;;;;;;5034027;28;20045;-27
2022/08/29 07:46:24;;;;;;;16.45;3.67;;;19.10;1.00;;;;;;5034088;28;20096;-27
2022/08/29 07:48:51;;;;;;;12.65;2.88;;;19.00;1.00;;;;;;5031885;28;20171;-27
2022/08/29 07:51:23;;;;;;;9.68;2.88;;;19.10;1.00;;;;;;5033069;28;20046;-28
2022/08/29 07:53:50;;;;;;;13.25;2.92;;;19.10;1.00;;;;;;5032897;28;20050;-28
2022/08/29 07:56:25;;;;;;;11.30;2.33;;;19.10;1.00;;;;;;5034815;28;20081;-27
2022/08/29 07:58:52;;;;;;;12.50;3.40;;;19.10;1.00;;;;;;5033785;28;20046;-28
2022/08/29 08:01:19;;;;;;;10.52;2.70;;;19.10;1.00;;;;;;5033746;28;20045;-27
2022/08/29 08:03:45;;;;;;;10.30;2.47;;;19.00;1.00;;;;;;5032707;28;20049;-28
2022/08/29 08:06:11;;;;;;;8.38;2.78;;;19.10;1.00;;;;;;5032939;28;20041;-27
2022/08/29 08:08:37;;;;;;;13.45;3.05;;;19.00;1.00;;;;;;5032744;28;20041;-28
2022/08/29 08:11:07;;;;;;;14.25;3.20;;;19.20;27.10;;;;;;5034362;28;20111;-28
2022/08/29 08:13:34;;;;;;;11.85;3.42;;;19.40;15.00;;;;;;5034553;28;20038;-27
2022/08/29 08:16:04;;;;;;;6.30;2.10;;;19.30;1.00;;;;;;5032473;28;20053;-27
2022/08/29 08:18:30;;;;;;;7.78;2.63;;;19.50;1.00;;;;;;5030722;28;20049;-28
2022/08/29 08:20:56;;;;;;;15.35;3.17;;;19.40;1.00;;;;;;5033557;28;20419;-28
2022/08/29 08:23:21;;;;;;;15.30;3.55;;;19.50;1.00;;;;;;5015980;28;20128;-27
2022/08/29 08:25:47;;;;;;;13.43;3.03;;;19.40;1.00;;;;;;5032936;28;20045;-27
2022/08/29 08:28:14;;;;;;;18.75;3.10;;;19.40;1.00;;;;;;5033200;28;20048;-27
2022/08/29 08:30:42;;;;;;;11.52;2.95;;;19.20;10.20;;;;;;5033499;28;20096;-26
2022/08/29 08:33:08;;;;;;;13.23;3.20;;;19.10;99.90;;;;;;5032313;28;20184;-25
2022/08/29 08:35:36;;;;;;;11.18;2.92;;;18.60;99.90;;;;;;5033386;28;20045;-24
2022/08/29 08:38:08;;;;;;;13.65;3.83;;;18.60;99.90;;;;;;5032228;28;20049;-24
2022/08/29 08:40:59;;;;;;;11.27;2.88;;;18.60;99.90;;;;;;5032148;28;20054;-25
2022/08/29 08:43:41;;;;;;;9.27;3.28;;;18.30;1.00;;;;;;5032672;28;20053;-25
2022/08/29 08:46:07;;;;;;;8.83;3.10;;;18.30;1.10;;;;;;5033118;28;20476;-25
2022/08/29 08:48:38;;;;;;;15.50;3.38;;;18.30;37.30;;;;;;4999421;28;20046;-25
2022/08/29 08:51:31;;;;;;;21.60;3.97;;;18.50;99.90;;;;;;5033980;28;20081;-26
2022/08/29 08:54:01;;;;;;;14.35;3.88;;;18.50;99.90;;;;;;5027675;28;20060;-26
2022/08/29 08:56:39;;;;;;;15.93;4.13;;;18.30;99.90;;;;;;5032596;28;20042;-27
2022/08/29 08:59:30;;;;;;;14.13;4.38;;;18.40;99.90;;;;;;5034198;28;20045;-26
2022/08/29 09:01:56;;;;;;;17.15;3.67;;;18.30;99.90;;;;;;5032023;28;20049;-25
2022/08/29 09:04:58;;;;;;;14.73;4.22;;;18.40;99.90;;;;;;5031213;28;20076;-25
2022/08/29 09:08:00;;;;;;;16.88;3.42;;;18.40;99.90;;;;;;5033542;28;20128;-27
2022/08/29 09:10:40;;;;;;;15.75;3.63;;;18.30;99.90;;;;;;5032919;28;20399;-26
2022/08/29 09:13:25;;;;;;;16.33;4.40;;;18.40;1.00;;;;;;5035417;28;20484;-26
2022/08/29 09:15:53;;;;;;;18.15;3.65;;;18.80;1.00;;;;;;5036145;28;20041;-26
2022/08/29 09:18:26;;;;;;;15.00;4.22;;;18.80;1.00;;;;;;5037435;28;20159;-27
2022/08/29 09:20:54;;;;;;;13.25;4.38;;;19.20;1.00;;;;;;5036855;28;20095;-26
2022/08/29 09:23:43;;;;;;;7.05;3.35;;;19.20;99.90;;;;;;5035586;28;20053;-27
2022/08/29 09:26:10;;;;;;;10.55;3.60;;;19.50;99.90;;;;;;5035990;28;20057;-26
2022/08/29 09:28:36;;;;;;;12.63;3.38;;;19.50;99.90;;;;;;5019914;28;20053;-27
2022/08/29 09:31:29;;;;;;;7.75;3.30;;;19.90;99.90;;;;;;5036011;28;20049;-26
2022/08/29 09:34:00;;;;;;;8.88;3.10;;;20.00;1.00;;;;;;5036334;28;20053;-27
2022/08/29 09:36:39;;;;;;;14.13;4.65;;;20.10;99.90;;;;;;5035419;28;20041;-27
2022/08/29 09:39:19;;;;;;;10.98;3.80;;;20.50;99.90;;;;;;5037236;28;20134;-27
2022/08/29 09:41:51;;;;;;;9.60;2.90;;;21.50;99.90;;;;;;5035768;28;20049;-27
2022/08/29 09:44:19;;;;;;;;;;;22.50;1.00;;;;;;5037711;28;20092;-27
2022/08/29 09:46:45;;;;;;;15.55;6.55;;;23.00;1.00;;;;;;5035693;28;19928;-28
2022/08/29 09:49:17;;;;;;;9.48;3.22;;;23.10;99.90;;;;;;5035596;28;20049;-27
2022/08/29 09:51:47;;;;;;;11.43;3.20;;;22.90;1.00;;;;;;5034391;28;20164;-27
2022/08/29 09:54:27;;;;;;;8.05;2.85;;;22.70;1.00;;;;;;5036982;28;20371;-27
2022/08/29 09:56:54;;;;;;;10.30;3.00;;;22.40;1.00;;;;;;5036085;28;20045;-28
2022/08/29 09:59:26;;;;;;;11.05;2.53;;;22.00;1.00;;;;;;5036270;28;20522;-27
2022/08/29 10:02:16;;;;;;;8.13;2.72;;;21.70;1.00;;;;;;5001975;28;20089;-27
2022/08/29 10:04:44;;;;;;;9.70;2.88;;;21.50;1.00;;;;;;5035028;28;20559;-27
2022/08/29 10:07:32;;;;;;;9.15;2.85;;;21.30;1.00;;;;;;5035253;28;20053;-27
2022/08/29 10:10:16;;;;;;;9.45;2.75;;;21.20;99.90;;;;;;5035983;28;20041;-28
2022/08/29 10:12:45;;;;;;;8.85;2.92;;;21.30;1.00;;;;;;5033733;28;20042;-29
2022/08/29 10:15:17;;;;;;;8.00;3.30;;;21.20;1.00;;;;;;5035471;28;20491;-27
2022/08/29 10:21:02;;;;;;;10.68;3.22;;;21.40;1.00;;;;;;5036085;28;20060;-28
2022/08/29 10:23:36;;;;;;;6.05;2.65;;;21.60;1.00;;;;;;5032872;28;20136;-28
2022/08/29 10:26:17;;;;;;;9.95;3.70;;;21.60;1.00;;;;;;5035024;28;20120;-28
2022/08/29 10:28:54;;;;;;;9.43;2.63;;;21.50;1.00;;;;;;5036457;28;20049;-28
2022/08/29 10:31:32;;;;;;;9.50;3.28;;;21.50;1.00;;;;;;5033608;28;20487;-28
2022/08/29 10:34:37;;;;;;;15.88;8.32;;;21.40;1.00;;;;;;5036239;28;20053;-28
2022/08/29 10:37:36;;;;;;;14.02;3.05;;;21.40;1.00;;;;;;5037111;28;20170;-28
2022/08/29 10:40:12;;;;;;;10.98;3.55;;;21.60;1.00;;;;;;5033137;28;20062;-28
2022/08/29 10:42:40;;;;;;;13.82;3.63;;;21.60;1.00;;;;;;5035020;28;20045;-28
2022/08/29 10:45:22;;;;;;;14.30;2.88;;;21.60;1.00;;;;;;5035180;28;20045;-28
2022/08/29 10:48:21;;;;;;;10.70;3.15;;;21.60;99.90;;;;;;5035229;28;20056;-28
2022/08/29 10:51:26;;;;;;;9.95;3.03;;;21.60;99.90;;;;;;5033542;28;20068;-28
2022/08/29 10:54:02;;;;;;;11.15;3.20;;;21.70;99.90;;;;;;5033993;28;20124;-28
2022/08/29 10:56:39;;;;;;;8.73;2.60;;;21.70;1.00;;;;;;5035051;28;20520;-28
2022/08/29 10:59:27;;;;;;;12.77;3.38;;;21.70;1.00;;;;;;5034617;28;20123;-28
2022/08/29 11:01:56;;;;;;;12.70;3.20;;;21.60;99.90;;;;;;5034209;28;20041;-28
2022/08/29 11:04:49;;;;;;;10.70;3.28;;;21.60;1.00;;;;;;5033862;28;20051;-28
2022/08/29 11:07:40;;;;;;;12.60;2.95;;;21.70;99.90;;;;;;5034357;28;20420;-28
2022/08/29 11:10:14;;;;;;;16.98;3.22;;;22.00;99.90;;;;;;5033152;28;20059;-28
2022/08/29 11:12:55;;;;;;;12.68;2.92;;;22.10;99.90;;;;;;5038266;28;20183;-30
2022/08/29 11:15:25;;;;;;;10.77;2.55;;;22.20;99.90;;;;;;5026702;28;20049;-28
2022/08/29 11:18:07;;;;;;;7.68;2.22;;;22.40;99.90;;;;;;5029122;28;20053;-28
2022/08/29 11:20:40;;;;;;;10.85;2.40;;;22.60;1.00;;;;;;5035177;28;20045;-28
2022/08/29 11:23:20;;;;;;;19.15;3.42;;;23.00;1.00;;;;;;5034577;28;20053;-28
2022/08/29 11:25:46;;;;;;;14.75;3.47;;;23.30;1.00;;;;;;5034825;28;20092;-29
2022/08/29 11:28:42;;;;;;;9.75;3.08;;;23.40;1.00;;;;;;5029831;28;20575;-28
2022/08/29 11:31:18;;;;;;;10.45;3.33;;;23.30;99.90;;;;;;5027969;28;20045;-28
2022/08/29 11:34:23;;;;;;;7.75;2.60;;;23.10;99.90;;;;;;5040087;28;20053;-28
2022/08/29 11:37:01;;;;;;;8.73;2.20;;;23.20;99.90;;;;;;5030652;28;20053;-28
2022/08/29 11:39:38;;;;;;;8.32;2.50;;;23.40;99.90;;;;;;5045004;28;20128;-28
2022/08/29 11:42:11;;;;;;;8.73;2.42;;;24.10;99.90;;;;;;5037143;28;20053;-28
2022/08/29 11:44:48;;;;;;;12.85;3.25;;;24.30;99.90;;;;;;5034154;28;20057;-29
2022/08/29 11:47:32;;;;;;;9.30;2.65;;;24.10;69.90;;;;;;5017513;28;20480;-28
2022/08/29 11:50:32;;;;;;;10.48;2.65;;;23.60;98.90;;;;;;5034031;28;20483;-28
2022/08/29 11:53:09;;;;;;;7.47;2.40;;;23.20;99.90;;;;;;5033771;28;20395;-28
2022/08/29 11:55:35;;;;;;;13.77;2.53;;;22.80;99.90;;;;;;5034679;28;20128;-28
2022/08/29 11:58:26;;;;;;;12.70;3.97;;;22.50;99.90;;;;;;5029419;28;20069;-29
2022/08/29 12:00:54;;;;;;;10.63;2.50;;;22.40;99.90;;;;;;5041140;28;20048;-28
2022/08/29 12:03:47;;;;;;;11.18;2.85;;;22.20;99.90;;;;;;5016471;28;20057;-28
2022/08/29 12:06:21;;;;;;;12.23;3.00;;;22.00;99.90;;;;;;5033191;28;20381;-28
2022/08/29 12:08:47;;;;;;;8.82;2.17;;;22.10;1.00;;;;;;5038128;28;20480;-28
2022/08/29 12:11:17;;;;;;;6.32;1.92;;;22.20;1.00;;;;;;5034004;28;20065;-28
2022/08/29 12:13:49;;;;;;;8.27;2.67;;;22.20;99.90;;;;;;5034229;28;20056;-28
2022/08/29 12:16:25;;;;;;;9.20;2.30;;;22.10;99.90;;;;;;5032993;28;20041;-28
2022/08/29 12:18:56;;;;;;;7.60;2.10;;;22.00;99.90;;;;;;5033571;28;20060;-28
2022/08/29 12:21:37;;;;;;;7.75;2.00;;;22.00;99.90;;;;;;5032382;28;20522;-29
2022/08/29 12:24:24;;;;;;;15.40;2.58;;;22.10;1.00;;;;;;5030279;28;20112;-28
2022/08/29 12:26:53;;;;;;;13.02;2.38;;;22.20;1.00;;;;;;5012799;28;20053;-28
2022/08/29 12:29:41;;;;;;;9.07;1.98;;;22.20;1.00;;;;;;5013839;28;20054;-28
2022/08/29 12:32:25;;;;;;;10.27;2.40;;;22.30;1.00;;;;;;5014450;28;20049;-28
2022/08/29 12:35:21;;;;;;;12.23;2.10;;;22.30;1.00;;;;;;5030778;28;20054;-28
2022/08/29 12:38:13;;;;;;;21.75;3.95;;;22.30;99.90;;;;;;5029693;28;20054;-28
2022/08/29 12:40:55;;;;;;;8.63;2.43;;;22.10;1.00;;;;;;5012670;28;20050;-28
2022/08/29 12:43:41;;;;;;;7.43;2.13;;;22.00;99.90;;;;;;5013772;28;20050;-28
2022/08/29 12:46:27;;;;;;;9.43;2.10;;;21.90;1.00;;;;;;5013751;28;20042;-28
2022/08/29 12:49:21;;;;;;;6.70;2.13;;;21.90;1.00;;;;;;5017183;28;20050;-29
2022/08/29 12:51:57;;;;;;;8.88;2.30;;;21.80;1.00;;;;;;5033681;28;20110;-28
2022/08/29 12:54:40;;;;;;;9.20;2.38;;;21.70;1.00;;;;;;5053371;28;20045;-28
2022/08/29 12:57:17;;;;;;;8.43;2.00;;;21.70;1.00;;;;;;5037332;28;20102;-28
2022/08/29 12:59:44;;;;;;;10.05;2.58;;;21.60;1.00;;;;;;5057674;28;20539;-28
2022/08/29 13:02:25;;;;;;;6.88;2.22;;;21.60;1.00;;;;;;5056153;28;20048;-28
2022/08/29 13:04:51;;;;;;;8.40;2.88;;;21.60;1.00;;;;;;5029426;28;20506;-28
2022/08/29 13:07:18;;;;;;;7.95;2.20;;;21.50;1.00;;;;;;5034112;28;20053;-28
2022/08/29 13:09:48;;;;;;;6.90;1.85;;;21.50;1.00;;;;;;5037019;28;20054;-28
2022/08/29 13:12:20;;;;;;;5.05;1.90;;;21.50;1.00;;;;;;5036965;28;20050;-28
2022/08/29 13:14:49;;;;;;;9.60;2.42;;;21.50;1.00;;;;;;5036851;28;20045;-28